Time;durP1;ratioP1;P1;durP2;ratioP2;P2;SDS_P1;SDS_P2;PMS_P1;PMS_P2;Temp;Humidity;BMP_temperature;BMP_pressure;BME280_temperature;BME280_humidity;BME280_pressure;Samples;Min_cycle;Max_cycle;Signal;HPM_P1;HPM_P2
2021/09/03 00:00:28;;;;;;;7.22;5.14;;;;;;;14.40;82.70;99750.72;2032470;77;21942;-77
2021/09/03 00:03:32;;;;;;;8.82;5.31;;;;;;;14.40;82.58;99750.72;2033208;79;20162;-77
2021/09/03 00:06:34;;;;;;;7.43;4.81;;;;;;;14.38;82.63;99749.88;2033363;79;20279;-77
2021/09/03 00:09:37;;;;;;;10.90;5.38;;;;;;;14.35;82.77;99737.69;2033659;79;20288;-77
2021/09/03 00:12:41;;;;;;;7.46;5.35;;;;;;;14.33;82.86;99736.88;2033770;79;20275;-77
2021/09/03 00:15:44;;;;;;;7.78;5.00;;;;;;;14.27;83.18;99739.56;2033004;79;21543;-77
2021/09/03 00:18:47;;;;;;;6.28;4.63;;;;;;;14.20;83.80;99732.72;2034478;79;20353;-77
2021/09/03 00:21:52;;;;;;;5.81;4.93;;;;;;;14.17;84.00;99736.22;2033762;79;20264;-78
2021/09/03 00:24:55;;;;;;;6.57;4.45;;;;;;;14.22;83.58;99730.94;2034439;79;20737;-78
2021/09/03 00:27:57;;;;;;;6.34;4.66;;;;;;;14.25;82.60;99740.47;2033741;79;20522;-77
2021/09/03 00:31:00;;;;;;;6.55;4.96;;;;;;;14.29;82.50;99729.09;2033478;78;24207;-77
2021/09/03 00:34:03;;;;;;;5.24;4.74;;;;;;;14.36;81.90;99733.34;2033507;79;20634;-78
2021/09/03 00:37:05;;;;;;;5.32;4.82;;;;;;;14.38;81.25;99735.06;2033202;79;20319;-78
2021/09/03 00:40:08;;;;;;;6.11;4.97;;;;;;;14.36;81.71;99734.22;2033697;79;20366;-78
2021/09/03 00:43:11;;;;;;;6.59;4.71;;;;;;;14.27;82.25;99729.13;2033150;79;20211;-79
2021/09/03 00:46:13;;;;;;;5.03;4.30;;;;;;;14.21;82.76;99721.38;2032882;77;20893;-77
2021/09/03 00:49:16;;;;;;;5.74;4.70;;;;;;;14.20;82.50;99719.66;2037974;79;20162;-77
2021/09/03 00:52:19;;;;;;;5.40;4.63;;;;;;;14.18;82.36;99713.56;2033463;79;20310;-77
2021/09/03 00:55:22;;;;;;;7.57;4.76;;;;;;;14.08;82.67;99717.22;2033651;79;20264;-77
2021/09/03 00:58:24;;;;;;;6.31;4.94;;;;;;;13.94;83.23;99717.38;2033555;79;20361;-78
2021/09/03 01:01:27;;;;;;;8.81;5.07;;;;;;;13.85;83.79;99720.13;2032844;79;20733;-77
2021/09/03 01:04:30;;;;;;;6.43;4.80;;;;;;;13.74;84.20;99717.63;2033980;79;20214;-78
2021/09/03 01:07:33;;;;;;;5.24;4.69;;;;;;;13.63;84.20;99714.25;2033075;79;20166;-78
2021/09/03 01:10:37;;;;;;;6.28;4.59;;;;;;;13.56;84.26;99712.63;2033867;79;20944;-77
2021/09/03 01:13:39;;;;;;;7.90;4.55;;;;;;;13.47;84.17;99708.38;2033459;79;20198;-78
2021/09/03 01:16:42;;;;;;;5.22;4.16;;;;;;;13.43;84.41;99709.28;2033550;77;20322;-78
2021/09/03 01:19:45;;;;;;;9.57;4.75;;;;;;;13.44;84.62;99710.13;2033600;79;20377;-77
2021/09/03 01:22:47;;;;;;;6.70;4.78;;;;;;;13.40;84.88;99713.66;2033167;79;20366;-78
2021/09/03 01:25:50;;;;;;;5.63;4.41;;;;;;;13.43;84.82;99717.09;2033920;79;20278;-78
2021/09/03 01:28:53;;;;;;;6.36;4.81;;;;;;;13.41;84.94;99712.78;2033530;79;20910;-77
2021/09/03 01:31:55;;;;;;;5.14;4.16;;;;;;;13.41;85.06;99708.44;2032141;77;21299;-76
2021/09/03 01:34:58;;;;;;;5.25;4.75;;;;;;;13.52;85.22;99708.31;2033580;79;20244;-78
2021/09/03 01:38:05;;;;;;;5.30;4.53;;;;;;;13.67;85.21;99692.50;2033106;79;20799;-77
2021/09/03 01:41:08;;;;;;;6.07;4.30;;;;;;;13.82;84.75;99694.03;2032839;79;20194;-76
2021/09/03 01:44:10;;;;;;;5.25;4.66;;;;;;;13.89;83.90;99704.41;2033047;79;20339;-77
2021/09/03 01:47:13;;;;;;;5.76;4.18;;;;;;;13.97;83.35;99700.81;2032335;77;20279;-77
2021/09/03 01:50:15;;;;;;;5.43;3.66;;;;;;;13.98;82.75;99700.78;2033329;79;20272;-76
2021/09/03 01:53:18;;;;;;;4.72;4.19;;;;;;;13.99;82.15;99704.25;2032907;79;20940;-77
2021/09/03 01:56:20;;;;;;;4.59;4.11;;;;;;;13.99;82.51;99696.41;2033369;79;20388;-78
2021/09/03 01:59:23;;;;;;;8.32;4.76;;;;;;;13.96;82.22;99702.56;2032996;79;20149;-79
2021/09/03 02:02:26;;;;;;;5.06;4.53;;;;;;;13.98;81.76;99695.56;2033276;77;23952;-77
2021/09/03 02:05:28;;;;;;;3.86;3.16;;;;;;;13.98;81.15;99692.94;2034066;79;20195;-77
2021/09/03 02:08:31;;;;;;;4.70;3.83;;;;;;;13.87;80.93;99694.84;2034919;79;20303;-77
2021/09/03 02:11:34;;;;;;;3.51;3.24;;;;;;;13.68;80.83;99694.22;2034381;79;20225;-77
2021/09/03 02:14:36;;;;;;;3.89;3.51;;;;;;;13.52;80.84;99695.28;2034067;79;20283;-78
2021/09/03 02:17:39;;;;;;;3.64;3.34;;;;;;;13.35;80.91;99690.25;2033868;77;21000;-77
2021/09/03 02:20:42;;;;;;;4.53;3.49;;;;;;;13.17;81.21;99693.88;2033931;79;20283;-77
2021/09/03 02:23:44;;;;;;;4.46;3.74;;;;;;;13.04;81.71;99694.00;2034643;79;20283;-77
2021/09/03 02:26:47;;;;;;;4.93;3.66;;;;;;;12.96;82.20;99692.34;2034144;79;20173;-77
2021/09/03 02:29:49;;;;;;;6.53;4.46;;;;;;;12.99;82.43;99684.50;2034679;79;20319;-78
2021/09/03 02:32:52;;;;;;;5.79;4.11;;;;;;;13.06;82.86;99692.25;2033669;78;20326;-77
2021/09/03 02:35:54;;;;;;;6.20;3.78;;;;;;;13.12;83.56;99692.22;2033725;79;20693;-76
2021/09/03 02:38:57;;;;;;;4.96;4.50;;;;;;;13.18;83.72;99700.84;2033958;79;20362;-77
2021/09/03 02:41:59;;;;;;;7.51;5.00;;;;;;;13.24;83.48;99702.53;2033218;79;20366;-77
2021/09/03 02:45:04;;;;;;;9.40;4.74;;;;;;;13.29;83.74;99695.53;2033857;79;20792;-77
2021/09/03 02:48:08;;;;;;;7.20;3.94;;;;;;;13.35;84.08;99694.59;2034138;77;20214;-77
2021/09/03 02:51:10;;;;;;;4.65;3.72;;;;;;;13.33;83.58;99696.38;2033880;79;20264;-77
2021/09/03 02:54:13;;;;;;;4.26;3.86;;;;;;;13.21;83.39;99686.91;2034445;79;20372;-77
2021/09/03 02:57:15;;;;;;;5.29;4.18;;;;;;;13.12;83.39;99693.06;2034099;79;20910;-77
2021/09/03 03:00:18;;;;;;;5.09;3.91;;;;;;;13.00;83.46;99687.97;2033142;79;20222;-77
2021/09/03 03:03:21;;;;;;;5.30;3.60;;;;;;;12.88;83.71;99686.31;2033213;79;21785;-79
2021/09/03 03:06:23;;;;;;;5.00;4.14;;;;;;;12.89;83.96;99688.06;2033084;79;20948;-76
2021/09/03 03:09:27;;;;;;;5.57;4.25;;;;;;;12.86;84.30;99675.06;2034300;79;20299;-78
2021/09/03 03:12:29;;;;;;;5.85;4.50;;;;;;;12.86;84.28;99676.81;2032589;79;20161;-77
2021/09/03 03:15:32;;;;;;;6.29;4.07;;;;;;;12.87;84.43;99670.72;2033031;79;20630;-76
2021/09/03 03:18:34;;;;;;;5.72;5.11;;;;;;;12.90;84.08;99662.84;2033531;79;20202;-77
2021/09/03 03:21:37;;;;;;;8.79;6.30;;;;;;;12.96;84.81;99658.47;2033581;79;20158;-77
2021/09/03 03:24:39;;;;;;;10.29;7.07;;;;;;;13.01;84.30;99659.28;2034293;79;20275;-77
2021/09/03 03:27:42;;;;;;;13.51;7.53;;;;;;;13.07;84.78;99660.94;2033475;79;20280;-77
2021/09/03 03:30:51;;;;;;;11.59;8.01;;;;;;;13.15;84.91;99650.47;2032423;77;21711;-78
2021/09/03 03:33:53;;;;;;;10.80;6.86;;;;;;;13.20;84.86;99652.16;2033659;79;20186;-77
2021/09/03 03:36:56;;;;;;;9.32;6.15;;;;;;;13.25;84.64;99655.56;2034083;79;20230;-78
2021/09/03 03:39:58;;;;;;;8.65;5.50;;;;;;;13.31;84.35;99654.66;2033393;79;20191;-77
2021/09/03 03:43:01;;;;;;;9.11;5.14;;;;;;;13.35;84.16;99652.88;2033337;79;20181;-77
2021/09/03 03:46:04;;;;;;;9.56;5.01;;;;;;;13.38;83.82;99650.22;2033331;77;20205;-77
2021/09/03 03:49:06;;;;;;;8.30;5.07;;;;;;;13.38;83.39;99647.63;2037070;79;20154;-77
2021/09/03 03:52:09;;;;;;;6.11;5.13;;;;;;;13.40;83.52;99648.47;2033607;79;20235;-77
2021/09/03 03:55:12;;;;;;;7.88;4.91;;;;;;;13.37;83.41;99651.97;2033623;79;20891;-77
2021/09/03 03:58:14;;;;;;;7.20;4.84;;;;;;;13.35;83.38;99647.66;2033637;79;20258;-77
2021/09/03 04:01:17;;;;;;;10.82;5.69;;;;;;;13.32;83.27;99643.34;2032179;77;21058;-77
2021/09/03 04:04:20;;;;;;;11.07;6.14;;;;;;;13.27;83.41;99645.13;2033289;79;20233;-77
2021/09/03 04:07:22;;;;;;;19.91;8.35;;;;;;;13.19;83.88;99647.81;2033661;79;20174;-77
2021/09/03 04:10:25;;;;;;;8.64;5.36;;;;;;;12.98;84.24;99650.63;2033466;79;20710;-77
2021/09/03 04:13:28;;;;;;;7.13;5.43;;;;;;;12.91;84.42;99649.81;2033272;79;20211;-77
2021/09/03 04:16:30;;;;;;;8.85;6.34;;;;;;;12.80;84.37;99645.59;2032365;78;22157;-77
2021/09/03 04:19:33;;;;;;;8.41;5.81;;;;;;;12.55;84.51;99650.13;2033133;79;20153;-77
2021/09/03 04:22:36;;;;;;;7.43;5.79;;;;;;;12.40;85.35;99654.63;2033325;79;20185;-79
2021/09/03 04:25:39;;;;;;;9.49;5.88;;;;;;;12.34;85.84;99652.03;2033078;79;20221;-77
2021/09/03 04:28:43;;;;;;;8.79;5.96;;;;;;;12.29;85.94;99656.41;2033505;79;20193;-77
2021/09/03 04:31:46;;;;;;;13.82;5.79;;;;;;;12.26;86.03;99651.25;2032467;79;20703;-77
2021/09/03 04:34:49;;;;;;;7.04;5.25;;;;;;;12.24;86.13;99657.34;2033811;79;20194;-77
2021/09/03 04:37:54;;;;;;;9.19;5.82;;;;;;;12.18;86.21;99666.03;2033558;79;20178;-77
2021/09/03 04:40:57;;;;;;;9.82;5.79;;;;;;;12.16;86.14;99664.31;2033266;79;20731;-79
2021/09/03 04:44:00;;;;;;;6.20;5.00;;;;;;;12.11;86.33;99672.16;2033953;79;20199;-78
2021/09/03 04:47:03;;;;;;;7.91;4.78;;;;;;;12.07;86.28;99667.84;2033380;79;20183;-78
2021/09/03 04:50:08;;;;;;;5.59;4.01;;;;;;;12.00;85.75;99667.00;2033191;79;20209;-76
2021/09/03 04:53:11;;;;;;;5.63;4.15;;;;;;;11.92;85.49;99668.81;2033379;79;20197;-77
2021/09/03 04:56:13;;;;;;;5.55;4.18;;;;;;;11.79;85.21;99667.13;2033178;79;20174;-77
2021/09/03 04:59:16;;;;;;;7.71;3.97;;;;;;;11.68;85.18;99671.50;2033676;79;20759;-78
2021/09/03 05:02:18;;;;;;;5.16;3.74;;;;;;;11.66;85.59;99668.88;2033444;79;20837;-77
2021/09/03 05:05:21;;;;;;;6.57;3.86;;;;;;;11.67;85.78;99670.63;2033542;79;20862;-78
2021/09/03 05:08:24;;;;;;;6.10;4.63;;;;;;;11.67;85.78;99667.16;2033296;79;20173;-78
2021/09/03 05:11:27;;;;;;;6.30;4.16;;;;;;;11.57;85.78;99668.06;2032614;79;20214;-78
2021/09/03 05:14:30;;;;;;;6.70;4.91;;;;;;;11.59;86.30;99662.00;2033434;79;20209;-78
2021/09/03 05:17:32;;;;;;;5.91;4.72;;;;;;;11.62;86.59;99656.78;2033504;79;20195;-77
2021/09/03 05:20:35;;;;;;;7.09;5.11;;;;;;;11.68;86.78;99656.75;2033345;79;20696;-79
2021/09/03 05:23:38;;;;;;;5.85;5.03;;;;;;;11.72;86.91;99657.59;2033270;79;20209;-77
2021/09/03 05:26:40;;;;;;;7.50;4.97;;;;;;;11.80;87.09;99661.06;2033713;79;20892;-77
2021/09/03 05:29:43;;;;;;;8.45;5.60;;;;;;;11.89;87.25;99667.97;2033495;79;20573;-78
2021/09/03 05:32:46;;;;;;;6.78;5.39;;;;;;;12.02;87.23;99667.88;2032990;79;20630;-77
2021/09/03 05:35:49;;;;;;;9.36;5.99;;;;;;;12.16;86.61;99667.78;2034329;79;20305;-77
2021/09/03 05:38:52;;;;;;;9.66;7.32;;;;;;;12.29;86.42;99677.25;2033901;79;20279;-78
2021/09/03 05:41:54;;;;;;;9.14;5.66;;;;;;;12.45;86.83;99675.41;2032966;79;20166;-77
2021/09/03 05:44:57;;;;;;;8.94;6.43;;;;;;;12.62;86.72;99677.88;2033171;79;20193;-77
2021/09/03 05:48:02;;;;;;;10.82;6.72;;;;;;;12.80;86.54;99674.25;2033512;79;20578;-77
2021/09/03 05:51:04;;;;;;;8.25;5.71;;;;;;;13.00;86.47;99672.31;2029217;79;20276;-76
2021/09/03 05:54:08;;;;;;;8.86;5.72;;;;;;;13.17;85.58;99674.78;2033046;79;20238;-74
2021/09/03 05:57:10;;;;;;;9.54;6.20;;;;;;;13.33;85.05;99675.50;2033142;79;20225;-77
2021/09/03 06:00:13;;;;;;;7.06;5.32;;;;;;;13.54;84.47;99670.91;2030745;79;20207;-77
2021/09/03 06:03:16;;;;;;;12.26;5.47;;;;;;;13.76;84.22;99674.09;2030770;79;20710;-79
2021/09/03 06:06:19;;;;;;;7.44;4.96;;;;;;;14.01;83.54;99668.56;2030743;79;20195;-77
2021/09/03 06:09:21;;;;;;;9.77;5.03;;;;;;;14.32;82.64;99675.06;2030834;79;20197;-77
2021/09/03 06:12:24;;;;;;;6.72;4.38;;;;;;;14.70;81.08;99674.47;2031033;79;20203;-77
2021/09/03 06:15:26;;;;;;;7.09;3.99;;;;;;;15.08;79.62;99676.47;2030348;79;20906;-78
2021/09/03 06:18:29;;;;;;;5.10;4.60;;;;;;;15.51;77.73;99678.25;2030555;79;20209;-78
2021/09/03 06:21:32;;;;;;;5.49;4.22;;;;;;;15.98;75.66;99671.22;2031390;79;20199;-77
2021/09/03 06:24:35;;;;;;;5.75;4.34;;;;;;;16.41;73.60;99671.09;2030873;79;20215;-79
2021/09/03 06:27:38;;;;;;;5.59;4.56;;;;;;;16.91;71.50;99669.00;2030901;79;20196;-78
2021/09/03 06:30:40;;;;;;;4.56;4.14;;;;;;;17.30;69.30;99668.84;2031375;79;20922;-78
2021/09/03 06:33:43;;;;;;;4.96;4.14;;;;;;;17.70;67.93;99672.09;2031347;79;20271;-78
2021/09/03 06:36:46;;;;;;;6.01;4.36;;;;;;;18.03;66.34;99675.50;2030871;79;20214;-78
2021/09/03 06:39:49;;;;;;;4.79;3.80;;;;;;;18.36;65.03;99681.50;2031107;79;20845;-78
2021/09/03 06:42:52;;;;;;;4.46;4.06;;;;;;;18.58;64.47;99678.19;2032677;79;20286;-78
2021/09/03 06:45:59;;;;;;;6.11;3.96;;;;;;;18.74;62.88;99678.56;2031459;79;20877;-78
2021/09/03 06:49:01;;;;;;;4.14;3.79;;;;;;;18.86;62.26;99680.81;2032647;79;20215;-78
2021/09/03 06:52:06;;;;;;;5.16;3.78;;;;;;;19.02;62.03;99676.72;2031555;79;20185;-78
2021/09/03 06:55:09;;;;;;;4.39;3.99;;;;;;;19.13;62.13;99677.22;2031628;79;20206;-78
2021/09/03 06:58:11;;;;;;;5.22;4.03;;;;;;;19.18;62.31;99675.28;2032379;79;21228;-78
2021/09/03 07:01:14;;;;;;;5.16;4.07;;;;;;;19.20;62.33;99668.19;2032436;79;20886;-77
2021/09/03 07:04:17;;;;;;;4.81;4.06;;;;;;;19.30;62.24;99677.50;2032395;79;20360;-77
2021/09/03 07:07:19;;;;;;;7.11;4.82;;;;;;;19.37;61.95;99669.38;2031998;79;20186;-77
2021/09/03 07:10:26;;;;;;;4.38;3.97;;;;;;;19.43;61.54;99667.38;2031625;79;21149;-77
2021/09/03 07:13:30;;;;;;;5.46;4.00;;;;;;;19.59;61.52;99671.22;2032742;79;20211;-77
2021/09/03 07:16:33;;;;;;;4.95;4.31;;;;;;;19.67;60.88;99670.06;2032147;79;20195;-77
2021/09/03 07:19:36;;;;;;;5.25;4.75;;;;;;;19.80;60.72;99666.94;2031932;79;20199;-77
2021/09/03 07:22:38;;;;;;;4.69;4.09;;;;;;;19.92;60.12;99671.72;2034349;79;20767;-77
2021/09/03 07:25:41;;;;;;;4.34;3.94;;;;;;;19.98;59.53;99669.78;2034853;79;20174;-77
2021/09/03 07:28:44;;;;;;;4.53;4.13;;;;;;;20.10;59.32;99671.91;2034553;79;20741;-77
2021/09/03 07:31:46;;;;;;;4.80;3.97;;;;;;;20.30;59.00;99665.91;2034746;79;20389;-77
2021/09/03 07:34:49;;;;;;;3.86;3.56;;;;;;;20.48;58.32;99659.91;2035519;79;20313;-78
2021/09/03 07:37:52;;;;;;;5.44;4.19;;;;;;;20.68;57.55;99657.31;2035671;79;20181;-78
2021/09/03 07:40:54;;;;;;;4.65;4.20;;;;;;;20.85;57.19;99651.34;2035552;79;20181;-78
2021/09/03 07:43:57;;;;;;;6.44;4.32;;;;;;;20.95;56.57;99654.44;2035501;79;21205;-78
2021/09/03 07:47:01;;;;;;;4.50;3.76;;;;;;;21.04;56.03;99654.91;2035198;79;20328;-78
2021/09/03 07:50:04;;;;;;;4.22;3.84;;;;;;;21.20;55.57;99652.47;2035046;79;20259;-77
2021/09/03 07:53:07;;;;;;;6.34;3.42;;;;;;;21.34;54.93;99657.16;2034781;79;20880;-77
2021/09/03 07:56:16;;;;;;;5.09;3.69;;;;;;;21.52;54.09;99652.81;2037997;79;20207;-78
2021/09/03 07:59:19;;;;;;;4.15;3.46;;;;;;;21.65;54.13;99664.56;2035000;79;20958;-78
2021/09/03 08:02:22;;;;;;;3.78;3.47;;;;;;;21.77;53.63;99665.81;2034309;79;20258;-78
2021/09/03 08:05:25;;;;;;;4.50;3.31;;;;;;;21.92;53.40;99673.91;2030566;79;20196;-78
2021/09/03 08:08:27;;;;;;;3.56;3.26;;;;;;;22.20;52.51;99673.47;2035301;79;20192;-79
2021/09/03 08:11:30;;;;;;;3.64;3.33;;;;;;;22.42;52.07;99669.78;2034237;79;20294;-79
2021/09/03 08:14:35;;;;;;;3.38;3.05;;;;;;;22.60;51.39;99664.47;2035384;79;21030;-79
2021/09/03 08:17:37;;;;;;;4.16;3.13;;;;;;;22.79;50.80;99667.06;2034276;79;20205;-79
2021/09/03 08:20:42;;;;;;;3.34;3.11;;;;;;;22.98;50.11;99660.84;2034240;79;20317;-79
2021/09/03 08:23:44;;;;;;;3.59;2.96;;;;;;;23.11;49.94;99662.81;2034582;79;20310;-79
2021/09/03 08:26:47;;;;;;;6.21;3.24;;;;;;;23.31;49.40;99674.16;2034395;79;20170;-78
2021/09/03 08:29:50;;;;;;;4.60;3.22;;;;;;;23.46;49.29;99674.22;2035261;79;20189;-79
2021/09/03 08:32:52;;;;;;;3.76;3.44;;;;;;;23.64;49.17;99669.78;2035246;79;20197;-79
2021/09/03 08:35:55;;;;;;;3.20;2.99;;;;;;;23.87;48.53;99671.16;2035276;79;20174;-80
2021/09/03 08:38:58;;;;;;;4.96;3.59;;;;;;;23.98;48.25;99662.63;2036292;79;20642;-79
2021/09/03 08:42:01;;;;;;;3.47;3.13;;;;;;;23.98;47.73;99662.63;2034679;79;20162;-79
2021/09/03 08:45:10;;;;;;;3.08;2.88;;;;;;;24.14;47.86;99660.00;2035090;79;20290;-79
2021/09/03 08:48:16;;;;;;;3.96;2.59;;;;;;;24.15;47.09;99674.97;2035438;79;20243;-76
2021/09/03 08:51:19;;;;;;;2.84;2.64;;;;;;;24.25;46.89;99668.22;2036085;79;20203;-79
2021/09/03 08:54:22;;;;;;;2.81;2.38;;;;;;;24.44;46.62;99662.75;2035055;79;20312;-79
2021/09/03 08:57:25;;;;;;;3.39;3.06;;;;;;;24.55;46.62;99663.84;2034858;79;20219;-79
2021/09/03 09:00:32;;;;;;;4.59;2.92;;;;;;;24.66;46.51;99672.06;2033885;79;20226;-79
2021/09/03 09:03:39;;;;;;;3.16;2.81;;;;;;;24.76;45.42;99676.81;2034193;79;20182;-79
2021/09/03 09:07:01;;;;;;;4.50;3.24;;;;;;;24.80;45.15;99675.72;2034593;79;20178;-80
2021/09/03 09:10:06;;;;;;;3.33;2.59;;;;;;;24.88;44.96;99665.50;2034886;79;20198;-80
2021/09/03 09:13:21;;;;;;;3.38;3.06;;;;;;;24.91;44.98;99674.13;2034666;79;20178;-79
2021/09/03 09:16:26;;;;;;;2.95;2.63;;;;;;;24.92;44.86;99674.97;2034352;79;20189;-79
2021/09/03 09:19:28;;;;;;;5.78;3.03;;;;;;;25.08;45.34;99677.63;2034749;79;20173;-79
2021/09/03 09:22:59;;;;;;;3.08;2.78;;;;;;;25.15;45.18;99671.00;2034908;79;20582;-79
2021/09/03 09:26:02;;;;;;;4.68;2.70;;;;;;;25.31;44.99;99674.44;2030942;79;20243;-80
2021/09/03 09:29:21;;;;;;;3.00;2.60;;;;;;;25.39;44.86;99677.50;2035434;79;20178;-79
2021/09/03 09:32:26;;;;;;;3.22;2.92;;;;;;;25.52;44.72;99677.63;2036054;79;20185;-81
2021/09/03 09:35:29;;;;;;;6.69;2.69;;;;;;;25.60;44.27;99667.34;2035450;79;20206;-81
2021/09/03 09:38:34;;;;;;;3.38;2.66;;;;;;;25.55;43.63;99677.44;2041410;79;20170;-81
2021/09/03 09:41:37;;;;;;;3.46;2.47;;;;;;;25.59;43.75;99671.81;2041230;79;20205;-80
2021/09/03 09:44:39;;;;;;;3.96;2.60;;;;;;;25.59;43.80;99670.97;2034130;79;20227;-78
2021/09/03 09:47:43;;;;;;;6.19;2.70;;;;;;;25.71;44.36;99669.38;2031427;79;20206;-80
2021/09/03 09:50:46;;;;;;;2.59;2.39;;;;;;;25.77;43.63;99659.22;2034372;79;20217;-81
2021/09/03 09:54:09;;;;;;;4.24;2.64;;;;;;;25.86;43.23;99660.44;2035150;79;20169;-80
2021/09/03 09:57:12;;;;;;;4.68;2.49;;;;;;;25.95;43.22;99654.53;2034921;79;20974;-79
2021/09/03 10:00:16;;;;;;;5.78;2.95;;;;;;;26.09;43.34;99658.97;2033941;79;20211;-80
2021/09/03 10:03:19;;;;;;;3.58;2.35;;;;;;;26.15;43.56;99654.13;2032911;79;20174;-79
2021/09/03 10:06:29;;;;;;;3.45;2.64;;;;;;;26.17;42.72;99654.00;2033405;79;20304;-79
2021/09/03 10:09:32;;;;;;;3.17;2.51;;;;;;;26.22;42.82;99649.25;2033131;79;20217;-80
2021/09/03 10:12:35;;;;;;;2.72;2.53;;;;;;;26.33;42.24;99645.88;2031833;79;20287;-80
2021/09/03 10:15:38;;;;;;;4.46;2.53;;;;;;;26.27;41.47;99643.63;2032827;79;20166;-79
2021/09/03 10:18:46;;;;;;;2.81;2.21;;;;;;;26.42;42.54;99634.69;2033178;79;20227;-78
2021/09/03 10:21:49;;;;;;;2.62;2.42;;;;;;;26.36;41.38;99630.59;2032844;79;20741;-81
2021/09/03 10:25:07;;;;;;;5.11;2.75;;;;;;;26.46;42.71;99631.72;2033848;79;20209;-81
2021/09/03 10:28:09;;;;;;;5.54;2.68;;;;;;;26.52;42.44;99632.25;2032217;79;20581;-79
2021/09/03 10:31:18;;;;;;;5.45;2.09;;;;;;;26.57;41.97;99633.66;2031760;79;20209;-79
2021/09/03 10:34:42;;;;;;;2.70;2.50;;;;;;;26.50;41.48;99635.88;2032712;79;20194;-80
2021/09/03 10:37:46;;;;;;;4.65;2.33;;;;;;;26.65;42.00;99628.66;2033301;79;20166;-78
2021/09/03 10:40:48;;;;;;;5.76;2.39;;;;;;;26.72;41.97;99629.09;2031071;79;20264;-78
2021/09/03 10:43:56;;;;;;;3.69;2.63;;;;;;;26.77;41.49;99621.69;2033202;79;20631;-78
2021/09/03 10:46:58;;;;;;;3.76;2.36;;;;;;;26.75;40.54;99618.22;2031468;79;20215;-77
2021/09/03 10:50:11;;;;;;;3.96;2.35;;;;;;;26.77;41.01;99619.00;2032543;79;20190;-78
2021/09/03 10:53:16;;;;;;;7.94;2.50;;;;;;;26.80;39.83;99619.66;2031505;79;20227;-78
2021/09/03 10:56:24;;;;;;;5.39;2.39;;;;;;;26.81;40.30;99617.84;2031550;79;20189;-78
2021/09/03 10:59:27;;;;;;;2.49;2.11;;;;;;;26.87;40.25;99614.75;2032030;79;20287;-79
2021/09/03 11:02:29;;;;;;;5.13;2.26;;;;;;;26.90;38.83;99609.22;2031607;79;20272;-79
2021/09/03 11:05:34;;;;;;;3.00;2.35;;;;;;;26.98;39.33;99611.38;2031694;79;20205;-78
2021/09/03 11:08:41;;;;;;;3.01;2.20;;;;;;;26.82;39.18;99611.56;2032434;79;20203;-79
2021/09/03 11:12:09;;;;;;;4.21;2.47;;;;;;;26.77;38.91;99606.53;2031324;79;20536;-78
2021/09/03 11:15:14;;;;;;;3.08;2.26;;;;;;;26.95;40.11;99607.09;2031476;79;20484;-78
2021/09/03 11:18:16;;;;;;;3.34;2.21;;;;;;;27.06;39.46;99601.03;2031956;79;21269;-78
2021/09/03 11:21:29;;;;;;;3.72;1.91;;;;;;;27.08;39.43;99596.47;2031766;79;21255;-77
2021/09/03 11:24:35;;;;;;;4.30;2.06;;;;;;;27.09;38.71;99593.69;2031406;79;20170;-79
2021/09/03 11:27:38;;;;;;;2.92;2.15;;;;;;;27.15;39.41;99592.44;2032921;79;20177;-80
2021/09/03 11:30:41;;;;;;;3.67;2.41;;;;;;;27.09;38.50;99591.03;2032212;79;20221;-80
2021/09/03 11:33:45;;;;;;;2.45;2.25;;;;;;;27.16;39.16;99586.13;2032868;79;20213;-78
2021/09/03 11:36:48;;;;;;;2.53;2.25;;;;;;;27.19;38.65;99593.06;2032277;79;20215;-79
2021/09/03 11:39:52;;;;;;;4.64;2.30;;;;;;;27.33;39.14;99587.63;2033182;79;20327;-80
2021/09/03 11:42:57;;;;;;;3.04;2.24;;;;;;;27.39;39.07;99592.53;2036036;79;20373;-78
2021/09/03 11:46:00;;;;;;;2.30;2.10;;;;;;;27.42;38.27;99586.09;2032525;79;20279;-78
2021/09/03 11:49:02;;;;;;;2.22;1.83;;;;;;;27.48;38.07;99588.34;2032471;79;20178;-78
2021/09/03 11:52:06;;;;;;;2.50;2.35;;;;;;;27.58;37.51;99590.25;2032112;79;20217;-79
2021/09/03 11:55:14;;;;;;;2.45;1.90;;;;;;;27.56;37.16;99589.50;2032328;79;21103;-81
2021/09/03 11:58:19;;;;;;;1.81;1.71;;;;;;;27.49;36.47;99582.06;2032277;79;20937;-77
2021/09/03 12:01:22;;;;;;;4.41;2.40;;;;;;;27.39;35.57;99576.50;2032617;79;20181;-76
2021/09/03 12:04:25;;;;;;;4.34;2.19;;;;;;;27.52;37.82;99574.69;2032491;79;20270;-75
2021/09/03 12:07:27;;;;;;;2.80;2.26;;;;;;;27.70;37.88;99572.56;2032255;79;20206;-76
2021/09/03 12:10:32;;;;;;;2.84;2.47;;;;;;;27.86;37.63;99569.63;2031412;79;20254;-77
2021/09/03 12:13:45;;;;;;;4.21;2.00;;;;;;;27.80;36.26;99567.38;2032689;79;20326;-77
2021/09/03 12:16:48;;;;;;;1.91;1.66;;;;;;;27.81;36.61;99566.41;2031698;79;20182;-77
2021/09/03 12:20:16;;;;;;;2.64;1.89;;;;;;;27.89;36.92;99561.38;2032152;79;20239;-77
2021/09/03 12:23:19;;;;;;;4.61;2.26;;;;;;;28.05;36.88;99558.44;2031688;79;20223;-79
2021/09/03 12:26:52;;;;;;;2.25;2.04;;;;;;;28.11;35.98;99558.84;2032056;79;20286;-77
2021/09/03 12:30:09;;;;;;;2.61;1.89;;;;;;;28.08;36.25;99556.41;2032568;79;20225;-86
2021/09/03 12:33:26;;;;;;;4.51;2.11;;;;;;;28.02;34.86;99553.34;2031612;79;20234;-84
2021/09/03 12:36:35;;;;;;;2.56;1.94;;;;;;;28.01;35.54;99552.50;2032689;79;21261;-78
2021/09/03 12:39:41;;;;;;;2.36;2.17;;;;;;;28.08;36.76;99552.88;2031228;79;20170;-78
2021/09/03 12:42:43;;;;;;;4.06;2.04;;;;;;;28.12;37.13;99547.19;2032174;79;20235;-77
2021/09/03 12:45:47;;;;;;;2.38;2.20;;;;;;;28.13;36.99;99543.56;2031925;79;20218;-79
2021/09/03 12:49:26;;;;;;;4.06;2.05;;;;;;;28.21;36.78;99543.84;2032031;79;20211;-78
2021/09/03 12:52:29;;;;;;;4.68;1.80;;;;;;;28.36;36.46;99547.19;2024504;79;20177;-77
2021/09/03 12:55:32;;;;;;;2.34;1.83;;;;;;;28.33;35.21;99542.09;2032448;79;20182;-77
2021/09/03 12:58:34;;;;;;;2.88;1.99;;;;;;;28.21;32.48;99535.84;2031996;79;20373;-78
2021/09/03 13:01:39;;;;;;;2.99;2.29;;;;;;;28.07;33.62;99529.81;2032011;79;20993;-77
2021/09/03 13:04:42;;;;;;;2.19;1.99;;;;;;;28.07;34.28;99530.66;2031292;79;20202;-78
2021/09/03 13:07:45;;;;;;;5.21;1.98;;;;;;;28.13;35.35;99521.34;2031882;79;20201;-78
2021/09/03 13:10:48;;;;;;;1.70;1.60;;;;;;;28.07;33.93;99519.13;2032117;79;20197;-79
2021/09/03 13:13:51;;;;;;;2.33;2.01;;;;;;;28.02;34.41;99515.97;2031581;79;20207;-78
2021/09/03 13:16:57;;;;;;;3.60;1.94;;;;;;;28.08;34.41;99510.16;2032153;79;20662;-78
2021/09/03 13:20:16;;;;;;;3.17;1.89;;;;;;;28.17;35.11;99506.78;2031640;79;20209;-78
2021/09/03 13:23:19;;;;;;;4.24;1.86;;;;;;;28.22;34.73;99501.97;2035527;79;20322;-78
2021/09/03 13:26:22;;;;;;;1.86;1.75;;;;;;;28.21;34.40;99497.59;2032321;79;20199;-78
2021/09/03 13:29:25;;;;;;;3.19;2.30;;;;;;;28.21;33.86;99494.94;2030811;79;20266;-79
2021/09/03 13:32:28;;;;;;;2.38;1.95;;;;;;;28.10;32.92;99490.38;2030322;79;20193;-78
2021/09/03 13:35:30;;;;;;;3.04;1.77;;;;;;;28.08;32.93;99488.78;2030749;79;20250;-78
2021/09/03 13:38:33;;;;;;;1.77;1.59;;;;;;;28.04;31.63;99480.19;2026256;79;20198;-77
2021/09/03 13:41:36;;;;;;;2.80;1.67;;;;;;;28.06;31.83;99475.56;2030426;79;20211;-78
2021/09/03 13:44:40;;;;;;;2.69;1.44;;;;;;;28.16;32.38;99478.38;2031113;79;20221;-78
2021/09/03 13:47:42;;;;;;;1.86;1.51;;;;;;;28.12;30.34;99474.25;2031560;79;20205;-78
2021/09/03 13:50:45;;;;;;;1.77;1.67;;;;;;;27.97;30.61;99471.75;2030496;79;20193;-77
2021/09/03 13:53:48;;;;;;;1.70;1.60;;;;;;;27.96;31.58;99466.53;2030997;79;20177;-77
2021/09/03 13:56:52;;;;;;;1.83;1.48;;;;;;;27.92;30.15;99473.06;2030983;79;20884;-78
2021/09/03 13:59:55;;;;;;;5.03;1.80;;;;;;;27.77;31.29;99467.06;2030362;79;20194;-78
2021/09/03 14:02:58;;;;;;;1.59;1.38;;;;;;;27.78;31.70;99462.56;2032281;79;20753;-79
2021/09/03 14:06:06;;;;;;;3.40;1.60;;;;;;;27.78;33.60;99462.56;2031399;79;20510;-79
2021/09/03 14:09:09;;;;;;;1.88;1.76;;;;;;;27.87;32.22;99457.41;2028325;79;20739;-78
2021/09/03 14:12:12;;;;;;;1.81;1.49;;;;;;;27.96;33.18;99453.19;2031903;79;20559;-78
2021/09/03 14:15:14;;;;;;;3.83;1.79;;;;;;;28.03;33.38;99451.78;2031620;79;20213;-79
2021/09/03 14:18:17;;;;;;;2.89;2.01;;;;;;;28.13;33.36;99451.91;2031130;79;20177;-78
2021/09/03 14:21:20;;;;;;;2.22;1.70;;;;;;;28.15;33.67;99448.16;2031661;79;20278;-78
2021/09/03 14:24:23;;;;;;;3.41;1.45;;;;;;;28.11;33.46;99444.03;2031881;79;20753;-78
2021/09/03 14:27:27;;;;;;;2.31;1.58;;;;;;;28.02;32.91;99431.38;2032149;79;20736;-78